Search for airport 
image banner adimage banner adimage banner ad
image banner ad

KNTD - Point Mugu Nas (Naval Base Ventura Co)

Located in Oxnard, United States

ICAO - NTD, IATA -

Data provided by Airmate  

General information

Coordinates: N34°7'9" W119°7'11"
Elevation is 13 feet MSL.
Magnetic variation is 12° East
View others Airports in California

Operational data

Special qualification required
Current time UTC:
Current local time:
Weather
METAR: KNTD 290852Z AUTO 00000KT 10SM CLR 16/14 A2995 RMK AO2 SLP142 T01610139 57008 VISNO N $
TAF: TAF AMD KNTD 2907/3007 VRB06KT 9999 FEW009 QNH2989INS TEMPO 2909/2915 8000 BR OVC009 BECMG 2916/2918 25011KT 9999 NSW FEW007 FEW250 QNH2990INS FM292100 27011KT 9999 FEW009 FEW050 SCT250 QNH2984INS FM300400 VRB05KT 9999 FEW008 QNH2988INS AUTOMATED SENSOR METWATCH 2907 TIL 2913 T17/2911Z T24/2920Z AMD 0739 FS30148
View NOTAMs / SUP AIP / TFR affecting this airport [VIEW]
Communications frequencies: [VIEW]

Runways:

RWY identifierQFULength (ft)Width (ft)SurfaceLDA (ft)
0344°11102200ASPH
21224°11102200ASPH
09105°5502200ASPH
27285°5502200ASPH

Airport contact information

Address: Oxnard United States

Satellite view of KNTD